Terminal Aerodrome Forecast
Issued by NWS Duluth, MN

Home | Current Version | Previous Version | Text Only | Print | Product List | Glossary On
Versions: 1 2 3 4 5 6 7 8 9 10 11 12 13 14 15 16 17 18 19 20 21 22 23 24 25 26 27 28 29 30 31 32
158
FTUS43 KDLH 070626 AAA
TAFDLH
TAF AMD
KDLH 070626Z 0706/0806 25020G28KT 1SM -SN BLSN SCT015 OVC025
      TEMPO 0706/0710 3SM -SN BLSN
     FM071100 26017G27KT 3SM -SHSN OVC019
     FM071600 27017G27KT P6SM -SN OVC015
     FM080300 30010KT P6SM OVC025=

USA.gov is the U.S. government's official web portal to all federal, state and local government web resources and services.